createdAt,value
2023-05-07T00:00:46.023Z,9.88
2023-05-07T00:03:12.620Z,7.97
2023-05-07T00:05:39.396Z,6.57
2023-05-07T00:08:06.002Z,5.13
2023-05-07T00:10:32.506Z,5.53
2023-05-07T00:13:01.438Z,3.30
2023-05-07T00:15:30.551Z,7.65
2023-05-07T00:17:57.015Z,5.35
2023-05-07T00:20:23.547Z,3.60
2023-05-07T00:22:52.533Z,3.85
2023-05-07T00:25:22.425Z,3.55
2023-05-07T00:27:51.353Z,6.75
2023-05-07T00:30:17.910Z,7.22
2023-05-07T00:32:46.564Z,4.78
2023-05-07T00:35:13.484Z,5.32
2023-05-07T00:37:40.060Z,3.90
2023-05-07T00:40:09.652Z,9.00
2023-05-07T00:42:39.025Z,6.97
2023-05-07T00:45:05.642Z,3.72
2023-05-07T00:47:32.356Z,8.48
2023-05-07T00:49:59.630Z,4.22
2023-05-07T00:52:29.224Z,2.85
2023-05-07T00:54:58.015Z,6.70
2023-05-07T00:57:26.988Z,3.75
2023-05-07T00:59:55.879Z,6.80
2023-05-07T01:02:22.825Z,4.15
2023-05-07T01:04:49.325Z,6.57
2023-05-07T01:07:18.620Z,7.88
2023-05-07T01:09:45.784Z,5.00
2023-05-07T01:12:12.342Z,6.82
2023-05-07T01:14:38.847Z,8.20
2023-05-07T01:17:05.515Z,2.63
2023-05-07T01:19:32.442Z,5.43
2023-05-07T01:22:03.151Z,8.15
2023-05-07T01:24:30.383Z,6.40
2023-05-07T01:26:56.838Z,2.63
2023-05-07T01:29:23.301Z,4.75
2023-05-07T01:31:50.942Z,4.50
2023-05-07T01:34:18.393Z,7.45
2023-05-07T01:36:45.513Z,6.90
2023-05-07T01:39:12.248Z,4.50
2023-05-07T01:41:38.826Z,4.53
2023-05-07T01:44:06.594Z,4.38
2023-05-07T01:46:34.173Z,3.42
2023-05-07T01:49:03.072Z,3.50
2023-05-07T01:51:29.576Z,3.33
2023-05-07T01:53:56.446Z,4.80
2023-05-07T01:56:23.049Z,5.40
2023-05-07T01:58:49.781Z,8.48
2023-05-07T02:01:16.344Z,4.50
2023-05-07T02:03:43.047Z,4.63
2023-05-07T02:06:09.688Z,4.75
2023-05-07T02:08:36.431Z,4.05
2023-05-07T02:11:03.170Z,3.70
2023-05-07T02:13:33.232Z,3.97
2023-05-07T02:15:59.792Z,3.97
2023-05-07T02:18:28.882Z,8.35
2023-05-07T02:20:55.333Z,7.03
2023-05-07T02:23:21.809Z,4.82
2023-05-07T02:25:48.294Z,5.88
2023-05-07T02:28:14.788Z,6.93
2023-05-07T02:30:41.438Z,5.18
2023-05-07T02:33:09.423Z,3.58
2023-05-07T02:35:38.456Z,10.63
2023-05-07T02:38:04.905Z,9.40
2023-05-07T02:40:34.590Z,2.55
2023-05-07T02:43:01.162Z,8.57
2023-05-07T02:45:27.696Z,6.60
2023-05-07T02:47:54.292Z,11.27
2023-05-07T02:50:20.775Z,5.55
2023-05-07T02:52:48.311Z,3.83
2023-05-07T02:55:17.174Z,3.25
2023-05-07T02:57:46.495Z,5.55
2023-05-07T03:00:19.556Z,4.32
2023-05-07T03:02:46.263Z,5.20
2023-05-07T03:05:13.623Z,6.72
2023-05-07T03:07:40.240Z,6.18
2023-05-07T03:10:07.346Z,4.80
2023-05-07T03:12:36.288Z,5.60
2023-05-07T03:15:02.844Z,4.15
2023-05-07T03:17:29.368Z,4.32
2023-05-07T03:19:55.885Z,7.80
2023-05-07T03:22:22.369Z,9.05
2023-05-07T03:24:48.875Z,6.95
2023-05-07T03:27:15.355Z,6.07
2023-05-07T03:29:42.099Z,4.28
2023-05-07T03:32:08.551Z,5.95
2023-05-07T03:34:35.076Z,6.63
2023-05-07T03:37:01.576Z,6.93
2023-05-07T03:39:28.082Z,4.88
2023-05-07T03:41:54.538Z,3.55
2023-05-07T03:44:23.235Z,7.40
2023-05-07T03:46:49.770Z,6.80
2023-05-07T03:49:18.445Z,5.20
2023-05-07T03:51:47.436Z,6.03
2023-05-07T03:54:14.188Z,4.28
2023-05-07T03:56:41.077Z,3.55
2023-05-07T03:59:10.289Z,4.25
2023-05-07T04:01:36.828Z,7.93
2023-05-07T04:04:04.329Z,5.88
2023-05-07T04:06:31.416Z,7.43
2023-05-07T04:08:58.156Z,4.90
2023-05-07T04:11:24.777Z,6.35
2023-05-07T04:13:51.324Z,5.43
2023-05-07T04:16:17.807Z,8.95
2023-05-07T04:18:44.607Z,6.05
2023-05-07T04:21:17.977Z,4.07
2023-05-07T04:23:46.677Z,5.05
2023-05-07T04:26:13.208Z,10.75
2023-05-07T04:28:40.457Z,7.03
2023-05-07T04:31:07.430Z,4.90
2023-05-07T04:33:34.180Z,10.63
2023-05-07T04:36:04.855Z,6.63
2023-05-07T04:38:32.531Z,4.93
2023-05-07T04:41:03.480Z,9.55
2023-05-07T04:43:29.992Z,5.30
2023-05-07T04:45:56.521Z,3.72
2023-05-07T04:48:23.126Z,5.28
2023-05-07T04:50:50.122Z,4.40
2023-05-07T04:53:16.948Z,3.58
2023-05-07T04:55:43.692Z,5.15
2023-05-07T04:58:12.498Z,8.73
2023-05-07T05:00:40.227Z,5.32
2023-05-07T05:03:09.552Z,4.43
2023-05-07T05:05:36.097Z,5.90
2023-05-07T05:08:02.578Z,7.18
2023-05-07T05:10:31.416Z,5.18
2023-05-07T05:12:57.898Z,4.90
2023-05-07T05:15:24.451Z,3.83
2023-05-07T05:17:51.052Z,6.75
2023-05-07T05:20:19.922Z,6.55
2023-05-07T05:22:46.365Z,3.55
2023-05-07T05:25:12.944Z,7.28
2023-05-07T05:27:39.452Z,5.82
2023-05-07T05:30:06.780Z,6.13
2023-05-07T05:32:35.831Z,5.88
2023-05-07T05:35:02.823Z,5.22
2023-05-07T05:37:31.180Z,13.38
2023-05-07T05:39:57.733Z,8.95
2023-05-07T05:42:24.335Z,7.15
2023-05-07T05:44:50.805Z,5.35
2023-05-07T05:47:19.675Z,6.75
2023-05-07T05:49:46.203Z,10.07
2023-05-07T05:52:13.307Z,8.98
2023-05-07T05:54:39.815Z,7.63
2023-05-07T05:57:07.024Z,8.35
2023-05-07T05:59:33.642Z,11.68
2023-05-07T06:02:00.288Z,10.05
2023-05-07T06:04:26.841Z,8.98
2023-05-07T06:06:55.584Z,7.85
2023-05-07T06:09:22.075Z,7.68
2023-05-07T06:11:48.511Z,8.07
2023-05-07T06:14:17.448Z,7.70
2023-05-07T06:16:43.999Z,10.23
2023-05-07T06:19:10.598Z,8.00
2023-05-07T06:21:37.029Z,10.43
2023-05-07T06:24:05.713Z,7.40
2023-05-07T06:26:32.222Z,8.45
2023-05-07T06:28:58.661Z,8.63
2023-05-07T06:31:30.417Z,8.35
2023-05-07T06:33:56.930Z,9.88
2023-05-07T06:36:23.399Z,8.70
2023-05-07T06:38:49.999Z,10.95
2023-05-07T06:41:16.464Z,7.22
2023-05-07T06:43:45.287Z,7.38
2023-05-07T06:46:11.824Z,6.55
2023-05-07T06:48:38.373Z,8.95
2023-05-07T06:51:05.009Z,6.32
2023-05-07T06:53:31.774Z,8.85
2023-05-07T06:55:58.305Z,8.75
2023-05-07T06:58:24.790Z,6.78
2023-05-07T07:00:51.274Z,8.35
2023-05-07T07:03:17.795Z,6.32
2023-05-07T07:05:44.433Z,7.45
2023-05-07T07:08:11.197Z,6.38
2023-05-07T07:10:37.762Z,5.32
2023-05-07T07:13:04.249Z,5.20
2023-05-07T07:15:30.754Z,7.75
2023-05-07T07:17:57.305Z,6.30
2023-05-07T07:20:23.905Z,6.35
2023-05-07T07:22:50.369Z,6.18
2023-05-07T07:25:16.940Z,6.97
2023-05-07T07:27:46.083Z,5.78
2023-05-07T07:30:12.886Z,5.95
2023-05-07T07:32:39.660Z,5.55
2023-05-07T07:35:06.578Z,4.35
2023-05-07T07:37:33.025Z,5.28
2023-05-07T07:39:59.545Z,4.72
2023-05-07T07:42:26.074Z,6.63
2023-05-07T07:44:55.066Z,4.97
2023-05-07T07:47:21.665Z,3.75
2023-05-07T07:49:48.139Z,3.85
2023-05-07T07:52:16.998Z,4.25
2023-05-07T07:54:45.864Z,5.05
2023-05-07T07:57:12.339Z,4.35
2023-05-07T07:59:38.797Z,3.50
2023-05-07T08:02:05.405Z,4.60
2023-05-07T08:04:34.157Z,4.95
2023-05-07T08:07:00.849Z,6.50
2023-05-07T08:09:29.873Z,3.90
2023-05-07T08:11:58.666Z,10.38
2023-05-07T08:14:25.245Z,3.25
2023-05-07T08:16:51.788Z,3.60
2023-05-07T08:19:20.728Z,7.85
2023-05-07T08:21:48.728Z,5.03
2023-05-07T08:24:15.938Z,4.70
2023-05-07T08:26:42.522Z,4.95
2023-05-07T08:29:08.952Z,5.25
2023-05-07T08:31:35.390Z,4.00
2023-05-07T08:34:01.871Z,4.82
2023-05-07T08:36:30.612Z,4.28
2023-05-07T08:38:57.013Z,4.88
2023-05-07T08:41:23.486Z,5.30
2023-05-07T08:43:51.233Z,4.82
2023-05-07T08:46:21.673Z,4.40
2023-05-07T08:48:51.910Z,3.45
2023-05-07T08:51:22.145Z,6.25
2023-05-07T08:53:49.507Z,8.27
2023-05-07T08:56:20.428Z,3.75
2023-05-07T08:58:48.812Z,3.95
2023-05-07T09:01:15.882Z,4.75
2023-05-07T09:03:49.728Z,9.00
2023-05-07T09:06:16.307Z,5.55
2023-05-07T09:08:45.459Z,3.20
2023-05-07T09:11:13.889Z,4.97
2023-05-07T09:13:40.352Z,3.78
2023-05-07T09:16:13.238Z,4.03
2023-05-07T09:18:46.069Z,3.35
2023-05-07T09:21:15.677Z,3.78
2023-05-07T09:23:42.383Z,5.97
2023-05-07T09:26:12.678Z,3.90
2023-05-07T09:28:42.501Z,3.17
2023-05-07T09:31:12.387Z,4.68
2023-05-07T09:33:39.240Z,3.30
2023-05-07T09:36:06.635Z,2.67
2023-05-07T09:38:33.971Z,4.15
2023-05-07T09:41:04.354Z,3.17
2023-05-07T09:43:39.891Z,2.47
2023-05-07T09:46:13.018Z,4.25
2023-05-07T09:51:10.974Z,3.88
2023-05-07T09:53:37.419Z,2.08
2023-05-07T09:56:05.277Z,3.33
2023-05-07T09:58:32.505Z,3.45
2023-05-07T10:00:58.937Z,2.75
2023-05-07T10:03:28.290Z,2.25
2023-05-07T10:05:55.287Z,3.13
2023-05-07T10:08:21.778Z,2.00
2023-05-07T10:10:48.438Z,2.50
2023-05-07T10:13:17.661Z,2.50
2023-05-07T10:15:44.104Z,4.38
2023-05-07T10:18:11.080Z,5.03
2023-05-07T10:20:37.834Z,2.10
2023-05-07T10:23:05.841Z,4.22
2023-05-07T10:25:35.151Z,4.28
2023-05-07T10:28:09.620Z,4.25
2023-05-07T10:31:02.485Z,2.55
2023-05-07T10:33:30.200Z,3.15
2023-05-07T10:35:58.398Z,2.47
2023-05-07T10:38:27.784Z,3.40
2023-05-07T10:40:54.378Z,2.83
2023-05-07T10:43:20.739Z,2.53
2023-05-07T10:46:06.030Z,2.22
2023-05-07T10:48:33.390Z,3.83
2023-05-07T10:51:22.802Z,8.23
2023-05-07T10:53:49.409Z,2.55
2023-05-07T10:56:19.113Z,2.45
2023-05-07T10:58:45.653Z,2.17
2023-05-07T11:01:14.153Z,2.05
2023-05-07T11:03:59.480Z,1.90
2023-05-07T11:06:26.581Z,2.88
2023-05-07T11:08:52.959Z,1.85
2023-05-07T11:13:50.600Z,2.22
2023-05-07T11:16:21.012Z,2.05
2023-05-07T11:18:51.528Z,1.52
2023-05-07T11:21:37.397Z,2.00
2023-05-07T11:24:04.980Z,2.88
2023-05-07T11:26:32.384Z,4.05
2023-05-07T11:29:01.071Z,4.88
2023-05-07T11:31:29.752Z,1.92
2023-05-07T11:33:56.374Z,1.63
2023-05-07T11:36:23.833Z,2.05
2023-05-07T11:38:50.260Z,3.67
2023-05-07T11:41:22.000Z,2.28
2023-05-07T11:43:56.164Z,2.65
2023-05-07T11:46:22.765Z,3.13
2023-05-07T11:48:49.407Z,1.70
2023-05-07T11:51:19.986Z,2.38
2023-05-07T11:53:46.439Z,2.72
2023-05-07T11:56:13.876Z,2.83
2023-05-07T11:58:40.872Z,1.83
2023-05-07T12:01:13.877Z,1.98
2023-05-07T12:03:44.736Z,1.35
2023-05-07T12:06:11.993Z,1.73
2023-05-07T12:08:39.125Z,1.63
2023-05-07T12:11:08.333Z,1.65
2023-05-07T12:13:34.746Z,1.58
2023-05-07T12:16:04.340Z,2.00
2023-05-07T12:18:31.179Z,2.45
2023-05-07T12:20:57.977Z,2.45
2023-05-07T12:23:24.471Z,1.35
2023-05-07T12:25:50.937Z,2.45
2023-05-07T12:28:18.666Z,1.92
2023-05-07T12:30:45.737Z,6.63
2023-05-07T12:33:12.212Z,2.47
2023-05-07T12:35:41.162Z,2.28
2023-05-07T12:38:14.668Z,1.83
2023-05-07T12:43:07.545Z,2.00
2023-05-07T12:45:42.408Z,1.10
2023-05-07T12:48:10.808Z,1.73
2023-05-07T12:50:37.196Z,1.05
2023-05-07T12:53:08.805Z,1.33
2023-05-07T12:55:45.322Z,2.58
2023-05-07T12:58:28.800Z,2.00
2023-05-07T13:00:56.364Z,1.60
2023-05-07T13:03:30.772Z,1.65
2023-05-07T13:05:59.085Z,2.30
2023-05-07T13:08:29.124Z,3.45
2023-05-07T13:10:55.775Z,2.30
2023-05-07T13:13:24.732Z,1.30
2023-05-07T13:15:51.168Z,2.10
2023-05-07T13:18:19.914Z,3.53
2023-05-07T13:20:46.394Z,1.95
2023-05-07T13:23:12.799Z,5.53
2023-05-07T13:25:39.333Z,2.55
2023-05-07T13:28:10.746Z,2.67
2023-05-07T13:30:41.679Z,1.85
2023-05-07T13:33:08.175Z,1.55
2023-05-07T13:35:34.618Z,1.83
2023-05-07T13:38:01.052Z,2.55
2023-05-07T13:40:27.449Z,1.70
2023-05-07T13:42:54.493Z,3.47
2023-05-07T13:45:21.017Z,1.70
2023-05-07T13:47:48.050Z,4.50
2023-05-07T13:50:17.184Z,1.95
2023-05-07T13:52:46.984Z,1.63
2023-05-07T13:55:13.777Z,2.00
2023-05-07T13:57:40.478Z,1.58
2023-05-07T14:00:07.355Z,2.75
2023-05-07T14:02:34.060Z,1.48
2023-05-07T14:05:00.941Z,1.80
2023-05-07T14:07:27.563Z,1.95
2023-05-07T14:09:54.093Z,2.13
2023-05-07T14:12:20.612Z,1.80
2023-05-07T14:14:47.768Z,2.22
2023-05-07T14:17:14.227Z,3.30
2023-05-07T14:19:40.781Z,1.95
2023-05-07T14:22:07.193Z,2.03
2023-05-07T14:24:38.497Z,1.58
2023-05-07T14:27:05.422Z,3.03
2023-05-07T14:29:31.822Z,1.40
2023-05-07T14:31:58.254Z,3.45
2023-05-07T14:34:24.656Z,2.35
2023-05-07T14:36:51.014Z,4.47
2023-05-07T14:39:17.643Z,3.70
2023-05-07T14:41:44.039Z,2.20
2023-05-07T14:44:12.817Z,3.33
2023-05-07T14:46:39.303Z,1.92
2023-05-07T14:49:06.629Z,1.40
2023-05-07T14:51:34.003Z,3.58
2023-05-07T14:54:01.250Z,2.00
2023-05-07T14:56:27.645Z,2.28
2023-05-07T14:58:54.078Z,1.65
2023-05-07T15:01:21.250Z,1.38
2023-05-07T15:03:47.886Z,1.73
2023-05-07T15:06:14.424Z,2.22
2023-05-07T15:08:40.866Z,2.13
2023-05-07T15:11:07.257Z,2.92
2023-05-07T15:13:33.701Z,3.60
2023-05-07T15:16:00.248Z,1.42
2023-05-07T15:18:27.015Z,3.55
2023-05-07T15:20:53.576Z,2.40
2023-05-07T15:23:20.238Z,1.88
2023-05-07T15:25:47.805Z,1.77
2023-05-07T15:28:16.840Z,2.47
2023-05-07T15:30:43.300Z,1.77
2023-05-07T15:33:09.850Z,2.65
2023-05-07T15:35:36.418Z,2.70
2023-05-07T15:38:03.874Z,3.15
2023-05-07T15:40:33.674Z,1.73
2023-05-07T15:43:00.182Z,1.95
2023-05-07T15:45:26.846Z,1.88
2023-05-07T15:47:53.614Z,1.77
2023-05-07T15:50:20.323Z,2.60
2023-05-07T15:52:47.467Z,2.05
2023-05-07T15:55:14.949Z,2.47
2023-05-07T15:57:41.361Z,2.58
2023-05-07T16:00:09.748Z,1.88
2023-05-07T16:02:37.425Z,2.55
2023-05-07T16:05:03.941Z,1.80
2023-05-07T16:07:30.352Z,4.20
2023-05-07T16:09:56.681Z,2.25
2023-05-07T16:12:23.064Z,3.20
2023-05-07T16:14:51.284Z,2.95
2023-05-07T16:17:17.762Z,3.55
2023-05-07T16:19:44.439Z,2.00
2023-05-07T16:22:14.965Z,2.10
2023-05-07T16:24:42.638Z,4.07
2023-05-07T16:27:09.013Z,2.10
2023-05-07T16:29:37.897Z,1.98
2023-05-07T16:32:04.620Z,2.03
2023-05-07T16:34:32.328Z,1.60
2023-05-07T16:36:59.214Z,2.78
2023-05-07T16:39:26.015Z,3.45
2023-05-07T16:41:52.642Z,2.25
2023-05-07T16:44:19.042Z,1.45
2023-05-07T16:46:45.572Z,2.97
2023-05-07T16:49:12.556Z,2.35
2023-05-07T16:51:43.165Z,3.35
2023-05-07T16:54:09.853Z,3.85
2023-05-07T16:56:36.489Z,2.53
2023-05-07T16:59:02.950Z,2.25
2023-05-07T17:01:32.643Z,4.03
2023-05-07T17:03:59.256Z,4.55
2023-05-07T17:06:25.978Z,3.38
2023-05-07T17:08:52.323Z,3.50
2023-05-07T17:11:18.731Z,4.60
2023-05-07T17:13:45.130Z,6.28
2023-05-07T17:16:11.633Z,2.72
2023-05-07T17:18:38.003Z,3.17
2023-05-07T17:21:04.466Z,2.63
2023-05-07T17:23:30.898Z,4.88
2023-05-07T17:25:57.292Z,2.65
2023-05-07T17:28:23.724Z,3.13
2023-05-07T17:30:50.229Z,4.63
2023-05-07T17:33:22.138Z,3.80
2023-05-07T17:35:48.933Z,3.00
2023-05-07T17:38:15.501Z,3.80
2023-05-07T17:40:41.956Z,3.55
2023-05-07T17:43:08.396Z,4.88
2023-05-07T17:45:34.860Z,5.65
2023-05-07T17:48:02.846Z,3.55
2023-05-07T17:50:29.276Z,6.68
2023-05-07T17:52:58.879Z,5.13
2023-05-07T17:55:25.568Z,4.40
2023-05-07T17:57:52.178Z,8.05
2023-05-07T18:00:18.780Z,5.75
2023-05-07T18:02:45.288Z,4.00
2023-05-07T18:05:12.270Z,3.95
2023-05-07T18:07:38.882Z,5.45
2023-05-07T18:10:05.782Z,4.38
2023-05-07T18:12:32.210Z,5.38
2023-05-07T18:14:58.775Z,7.28
2023-05-07T18:17:26.411Z,6.00
2023-05-07T18:19:54.919Z,7.03
2023-05-07T18:22:21.986Z,6.82
2023-05-07T18:24:48.763Z,6.50
2023-05-07T18:27:15.414Z,7.18
2023-05-07T18:29:41.932Z,5.80
2023-05-07T18:32:08.496Z,4.97
2023-05-07T18:34:35.308Z,6.63
2023-05-07T18:37:02.093Z,6.47
2023-05-07T18:39:28.572Z,5.35
2023-05-07T18:41:55.225Z,6.38
2023-05-07T18:44:21.636Z,5.53
2023-05-07T18:46:48.856Z,6.78
2023-05-07T18:49:15.247Z,5.80
2023-05-07T18:51:44.957Z,8.85
2023-05-07T18:54:11.390Z,7.07
2023-05-07T18:56:37.793Z,8.48
2023-05-07T18:59:04.210Z,5.95
2023-05-07T19:01:30.681Z,5.57
2023-05-07T19:03:57.141Z,9.57
2023-05-07T19:06:23.566Z,8.18
2023-05-07T19:08:49.961Z,6.95
2023-05-07T19:11:16.371Z,7.75
2023-05-07T19:13:42.718Z,6.82
2023-05-07T19:16:12.428Z,6.60
2023-05-07T19:18:38.914Z,6.88
2023-05-07T19:21:06.028Z,6.93
2023-05-07T19:23:32.878Z,9.68
2023-05-07T19:25:59.266Z,6.93
2023-05-07T19:28:28.117Z,8.52
2023-05-07T19:30:54.594Z,6.68
2023-05-07T19:33:20.990Z,7.88
2023-05-07T19:35:47.451Z,8.27
2023-05-07T19:38:13.896Z,7.45
2023-05-07T19:40:40.398Z,8.23
2023-05-07T19:43:07.076Z,8.55
2023-05-07T19:45:33.747Z,11.32
2023-05-07T19:48:00.296Z,8.48
2023-05-07T19:50:26.798Z,8.45
2023-05-07T19:52:53.187Z,8.77
2023-05-07T19:55:19.637Z,9.15
2023-05-07T19:57:50.199Z,9.63
2023-05-07T20:00:17.099Z,8.85
2023-05-07T20:02:43.654Z,7.53
2023-05-07T20:05:11.355Z,9.18
2023-05-07T20:07:37.734Z,6.50
2023-05-07T20:10:04.274Z,7.97
2023-05-07T20:12:31.032Z,8.82
2023-05-07T20:14:57.396Z,8.43
2023-05-07T20:17:23.914Z,21.15
2023-05-07T20:19:50.364Z,11.45
2023-05-07T20:22:16.783Z,7.25
2023-05-07T20:24:43.218Z,11.93
2023-05-07T20:27:10.989Z,8.60
2023-05-07T20:29:37.333Z,8.30
2023-05-07T20:32:03.891Z,10.30
2023-05-07T20:34:30.360Z,9.80
2023-05-07T20:36:57.006Z,9.43
2023-05-07T20:39:24.350Z,10.02
2023-05-07T20:41:50.788Z,9.48
2023-05-07T20:44:20.041Z,8.38
2023-05-07T20:46:48.878Z,8.88
2023-05-07T20:49:15.468Z,8.05
2023-05-07T20:51:41.867Z,9.90
2023-05-07T20:54:08.790Z,13.88
2023-05-07T20:56:35.391Z,10.30
2023-05-07T20:59:01.768Z,9.82
2023-05-07T21:01:29.463Z,9.82
2023-05-07T21:03:56.049Z,10.20
2023-05-07T21:06:22.455Z,10.25
2023-05-07T21:08:48.947Z,10.25
2023-05-07T21:11:15.304Z,12.60
2023-05-07T21:13:41.640Z,11.30
2023-05-07T21:16:08.083Z,10.77
2023-05-07T21:18:34.512Z,12.40
2023-05-07T21:21:06.872Z,12.77
2023-05-07T21:23:33.241Z,14.75
2023-05-07T21:25:59.603Z,10.02
2023-05-07T21:28:25.999Z,13.57
2023-05-07T21:30:52.577Z,9.82
2023-05-07T21:33:19.430Z,10.00
2023-05-07T21:35:45.814Z,11.57
2023-05-07T21:38:12.750Z,10.73
2023-05-07T21:40:40.202Z,16.33
2023-05-07T21:43:08.943Z,10.23
2023-05-07T21:45:35.276Z,14.00
2023-05-07T21:48:01.812Z,11.68
2023-05-07T21:50:28.245Z,12.85
2023-05-07T21:52:54.685Z,11.13
2023-05-07T21:55:21.111Z,14.50
2023-05-07T21:58:01.239Z,12.23
2023-05-07T22:00:31.221Z,12.18
2023-05-07T22:02:57.784Z,12.45
2023-05-07T22:05:24.167Z,9.77
2023-05-07T22:07:50.846Z,12.50
2023-05-07T22:10:21.741Z,11.75
2023-05-07T22:12:48.189Z,10.93
2023-05-07T22:15:14.566Z,13.30
2023-05-07T22:17:40.953Z,11.23
2023-05-07T22:20:10.303Z,12.30
2023-05-07T22:22:53.039Z,11.93
2023-05-07T22:25:20.224Z,11.90
2023-05-07T22:27:46.703Z,11.82
2023-05-07T22:30:13.463Z,10.60
2023-05-07T22:32:41.881Z,20.48
2023-05-07T22:35:08.610Z,10.15
2023-05-07T22:37:34.971Z,13.00
2023-05-07T22:40:01.412Z,11.13
2023-05-07T22:42:27.749Z,9.57
2023-05-07T22:44:54.799Z,11.65
2023-05-07T22:47:21.205Z,11.13
2023-05-07T22:49:47.605Z,11.13
2023-05-07T22:52:14.107Z,10.38
2023-05-07T22:54:43.103Z,9.05
2023-05-07T22:57:11.840Z,10.82
2023-05-07T22:59:38.167Z,8.93
2023-05-07T23:02:05.048Z,10.65
2023-05-07T23:04:31.436Z,10.45
2023-05-07T23:06:57.828Z,7.63
2023-05-07T23:09:24.174Z,7.93
2023-05-07T23:11:50.595Z,9.15
2023-05-07T23:14:16.987Z,8.75
2023-05-07T23:16:43.362Z,8.35
2023-05-07T23:19:11.592Z,8.73
2023-05-07T23:21:37.942Z,7.75
2023-05-07T23:24:04.399Z,9.25
2023-05-07T23:26:30.731Z,7.35
2023-05-07T23:28:57.071Z,7.68
2023-05-07T23:31:23.446Z,8.35
2023-05-07T23:33:49.842Z,7.82
2023-05-07T23:36:16.262Z,6.82
2023-05-07T23:38:42.693Z,6.75
2023-05-07T23:41:11.536Z,6.68
2023-05-07T23:43:38.157Z,8.13
2023-05-07T23:46:04.545Z,8.07
2023-05-07T23:48:33.499Z,9.00
2023-05-07T23:51:02.370Z,7.40
2023-05-07T23:53:28.798Z,6.55
2023-05-07T23:55:55.164Z,11.45
2023-05-07T23:58:21.545Z,8.00
